NCAR-RAP Real-Time Weather Data

Output produced by METARs form (13 February 2016  06:40 UTC)
found at http://weather.rap.ucar.edu/surface/
 
Conditions at: KLOU observed 13 February 2016  05:53 UTC
Temperature: -4.4°C (24°F)
Dewpoint: -15.0°C (5°F) [RH = 43%]
Pressure (altimeter): 30.37 inches Hg (1028.5 mb)
[Sea-level pressure: 1029.0 mb]
Winds: from the WNW (300 degrees) at 17 MPH (15 knots; 7.8 m/s)
gusting to 24 MPH (21 knots; 10.9 m/s)
Visibility: 10 or more miles (16+ km)
Ceiling: 4800 feet AGL
Clouds: broken clouds at 4800 feet AGL
Present Weather: automated observation with no human augmentation;
there may or may not be significant weather present at this time
KLOU 130553Z AUTO 30015G21KT 10SM BKN048 M04/M15 A3037 RMK AO2 SLP290 T10441150 11011 21044 53017